LEBA/ODB METAR and TAF weather

Enter ICAO airport designator
Station Type Date Time Source
LEBA METAR 2019/08/22 20:30 UTC NOAA

LEBA 222030Z AUTO 25006KT 210V280 9999 NCD 29/17 Q1015


Station Type Date Time Source
LEBA Decoded METAR 2019/08/22 20:30 UTC NOAA

Station name not available
Aug 22, 2019 - 04:30 PM EDT / 2019.08.22 2030 UTC
Wind: from the WSW (250 degrees) at 7 MPH (6 KT) (direction variable):0
Visibility: greater than 7 mile(s):0
Temperature: 84 F (29 C)
Dew Point: 62 F (17 C)
Relative Humidity: 48%
Pressure (altimeter): 29.97 in. Hg (1015 hPa)
ob: LEBA 222030Z AUTO 25006KT 210V280 9999 NCD 29/17 Q1015
cycle: 20

Station Type Date Time Source
LEBA TAF 2015/01/24 09:27 UTC NOAA

TAF TAF LEBA 240800Z 2409/2421 VRB02KT CAVOK

Example: see airport list